Time;durP1;ratioP1;P1;durP2;ratioP2;P2;SDS_P1;SDS_P2;PMS_P1;PMS_P2;Temp;Humidity;BMP_temperature;BMP_pressure;BME280_temperature;BME280_humidity;BME280_pressure;Samples;Min_cycle;Max_cycle;Signal;HPM_P1;HPM_P2
2022/04/06 00:01:35;;;;;;;30.65;14.43;;;9.00;99.90;;;;;;5147034;27;20092;-67
2022/04/06 00:04:02;;;;;;;33.50;15.50;;;9.20;99.90;;;;;;5128495;27;20074;-67
2022/04/06 00:06:27;;;;;;;34.25;15.77;;;9.00;99.90;;;;;;5147142;27;20072;-67
2022/04/06 00:08:53;;;;;;;29.33;15.05;;;8.90;99.90;;;;;;5128567;27;20110;-67
2022/04/06 00:11:19;;;;;;;36.70;15.38;;;9.10;99.90;;;;;;5147391;27;20573;-67
2022/04/06 00:13:44;;;;;;;30.92;15.43;;;9.20;99.90;;;;;;5146370;27;20063;-67
2022/04/06 00:16:10;;;;;;;30.20;13.90;;;9.20;99.90;;;;;;5146321;27;20035;-67
2022/04/06 00:18:36;;;;;;;40.53;15.38;;;9.10;99.90;;;;;;5107357;28;20099;-67
2022/04/06 00:21:02;;;;;;;35.03;14.27;;;9.10;99.90;;;;;;5143905;27;20035;-67
2022/04/06 00:23:28;;;;;;;29.77;15.48;;;9.20;99.90;;;;;;5129163;27;20141;-67
2022/04/06 00:25:55;;;;;;;34.60;15.90;;;9.30;99.90;;;;;;5126554;27;20079;-67
2022/04/06 00:28:21;;;;;;;33.28;15.98;;;9.00;99.90;;;;;;5145945;27;20050;-67
2022/04/06 00:30:47;;;;;;;35.13;15.38;;;9.20;99.90;;;;;;5146313;27;20038;-67
2022/04/06 00:33:13;;;;;;;34.15;16.42;;;9.30;99.90;;;;;;5128126;27;20107;-67
2022/04/06 00:35:40;;;;;;;39.90;18.25;;;9.10;99.90;;;;;;5143738;27;20096;-67
2022/04/06 00:38:07;;;;;;;27.92;16.35;;;9.30;99.90;;;;;;5125020;28;20051;-67
2022/04/06 00:40:34;;;;;;;33.97;17.83;;;9.20;99.90;;;;;;5119140;27;20064;-67
2022/04/06 00:43:04;;;;;;;34.63;17.70;;;9.30;99.90;;;;;;5128596;27;20051;-67
2022/04/06 00:45:30;;;;;;;32.90;18.73;;;9.20;99.90;;;;;;5127513;27;20051;-67
2022/04/06 00:47:56;;;;;;;33.72;17.13;;;9.40;99.90;;;;;;5143339;27;20039;-67
2022/04/06 00:50:23;;;;;;;30.15;17.00;;;9.40;99.90;;;;;;5146570;27;20115;-67
2022/04/06 00:52:50;;;;;;;37.90;18.63;;;9.30;99.90;;;;;;5128125;27;20122;-67
2022/04/06 00:55:16;;;;;;;33.63;17.58;;;9.20;99.90;;;;;;5110336;27;20051;-67
2022/04/06 00:57:43;;;;;;;33.60;17.90;;;9.40;99.90;;;;;;5146457;27;20046;-67
2022/04/06 01:00:10;;;;;;;32.85;17.65;;;9.20;99.90;;;;;;5147349;27;20075;-67
2022/04/06 01:02:35;;;;;;;33.90;17.00;;;9.40;99.90;;;;;;5126885;27;20456;-67
2022/04/06 01:05:01;;;;;;;35.03;17.98;;;9.20;99.90;;;;;;5145954;27;20066;-67
2022/04/06 01:07:27;;;;;;;29.30;16.42;;;9.20;99.90;;;;;;5146472;27;20074;-67
2022/04/06 01:09:53;;;;;;;32.47;17.30;;;9.30;99.90;;;;;;5145446;27;20069;-67
2022/04/06 01:12:21;;;;;;;35.63;16.50;;;9.10;99.90;;;;;;5144719;27;20049;-67
2022/04/06 01:14:47;;;;;;;29.95;16.35;;;9.30;99.90;;;;;;5125243;27;20446;-67
2022/04/06 01:17:13;;;;;;;32.05;16.27;;;9.30;99.90;;;;;;5127791;27;20051;-67
2022/04/06 01:19:44;;;;;;;31.80;15.93;;;9.20;99.90;;;;;;5127580;27;20053;-67
2022/04/06 01:22:15;;;;;;;31.35;15.63;;;9.20;99.90;;;;;;5146076;27;20051;-67
2022/04/06 01:24:42;;;;;;;25.58;14.30;;;9.40;99.90;;;;;;5126867;27;20050;-67
2022/04/06 01:27:08;;;;;;;30.20;14.20;;;9.50;99.90;;;;;;5127516;27;20465;-67
2022/04/06 01:29:34;;;;;;;28.27;14.48;;;9.50;99.90;;;;;;5145223;27;20078;-67
2022/04/06 01:32:07;;;;;;;28.15;13.77;;;9.50;99.90;;;;;;5146617;27;20051;-67
2022/04/06 01:34:33;;;;;;;32.75;13.82;;;9.30;99.90;;;;;;5135676;27;20102;-67
2022/04/06 01:36:59;;;;;;;26.65;14.77;;;9.50;99.90;;;;;;5130782;27;20051;-67
2022/04/06 01:39:24;;;;;;;27.92;13.15;;;9.30;99.90;;;;;;5164176;27;20057;-67
2022/04/06 01:41:50;;;;;;;25.33;14.00;;;9.20;99.90;;;;;;5147153;27;20047;-67
2022/04/06 01:44:16;;;;;;;31.40;14.88;;;9.50;99.90;;;;;;5165533;27;20051;-67
2022/04/06 01:46:41;;;;;;;27.65;13.52;;;9.40;99.90;;;;;;5149020;27;20042;-67
2022/04/06 01:54:36;;;;;;;32.95;13.27;;;9.20;99.90;;;;;;5165975;27;20088;-67
2022/04/06 01:57:01;;;;;;;29.52;13.93;;;9.30;99.90;;;;;;5162577;27;20030;-67
2022/04/06 01:59:27;;;;;;;28.02;13.45;;;9.50;99.90;;;;;;5165689;27;20046;-67
2022/04/06 02:01:54;;;;;;;25.08;12.20;;;9.50;99.90;;;;;;5165980;27;20039;-67
2022/04/06 02:04:20;;;;;;;25.63;12.65;;;9.40;99.90;;;;;;5147406;27;20067;-67
2022/04/06 02:06:46;;;;;;;34.38;13.80;;;9.50;99.90;;;;;;5165563;27;20053;-67
2022/04/06 02:09:13;;;;;;;22.60;11.65;;;9.40;99.90;;;;;;5166165;27;20038;-67
2022/04/06 02:11:39;;;;;;;30.50;12.95;;;9.30;99.90;;;;;;5147821;27;20046;-67
2022/04/06 02:14:05;;;;;;;27.38;12.52;;;9.30;99.90;;;;;;5147349;27;20039;-67
2022/04/06 02:16:32;;;;;;;29.17;12.43;;;9.20;99.90;;;;;;5165683;27;20045;-67
2022/04/06 02:18:58;;;;;;;27.48;13.35;;;9.20;99.90;;;;;;5162360;27;20088;-67
2022/04/06 02:21:24;;;;;;;25.50;11.65;;;9.40;99.90;;;;;;5146726;27;20039;-67
2022/04/06 02:23:50;;;;;;;29.02;11.52;;;9.30;99.90;;;;;;5147665;27;20094;-67
2022/04/06 02:26:16;;;;;;;23.52;11.88;;;9.50;99.90;;;;;;5165528;27;20121;-67
2022/04/06 02:28:41;;;;;;;21.17;10.32;;;9.50;99.90;;;;;;5165287;27;20034;-67
2022/04/06 02:31:07;;;;;;;25.27;10.98;;;9.30;99.90;;;;;;5146911;27;20046;-67
2022/04/06 02:33:33;;;;;;;23.05;10.32;;;9.40;99.90;;;;;;5140875;28;20039;-68
2022/04/06 02:35:58;;;;;;;30.73;10.57;;;9.50;99.90;;;;;;5126066;28;20108;-67
2022/04/06 02:38:24;;;;;;;20.67;8.88;;;9.20;99.90;;;;;;5145176;28;20032;-67
2022/04/06 02:40:50;;;;;;;21.25;9.40;;;9.30;99.90;;;;;;5139226;27;20107;-67
2022/04/06 02:43:16;;;;;;;23.90;9.48;;;9.50;99.90;;;;;;5124623;28;20138;-67
2022/04/06 02:45:41;;;;;;;18.23;9.32;;;9.50;99.90;;;;;;5144636;28;20050;-67
2022/04/06 02:48:07;;;;;;;18.85;7.65;;;9.40;99.90;;;;;;5126027;28;20035;-67
2022/04/06 02:50:33;;;;;;;21.75;9.82;;;9.50;99.90;;;;;;5145946;27;20423;-67
2022/04/06 02:52:58;;;;;;;17.50;8.38;;;9.30;99.90;;;;;;5148418;27;20047;-67
2022/04/06 02:55:24;;;;;;;17.08;7.65;;;9.50;99.90;;;;;;5131195;27;20043;-67
2022/04/06 02:57:50;;;;;;;21.00;7.97;;;9.50;99.90;;;;;;5148300;27;20055;-67
2022/04/06 03:00:16;;;;;;;25.20;8.80;;;9.50;99.90;;;;;;5131074;27;20035;-67
2022/04/06 03:02:46;;;;;;;22.95;8.55;;;9.40;99.90;;;;;;5130459;27;20054;-67
2022/04/06 03:05:12;;;;;;;19.88;7.95;;;9.50;99.90;;;;;;5123964;27;20080;-67
2022/04/06 03:07:42;;;;;;;18.27;8.85;;;9.30;99.90;;;;;;5129490;27;20035;-67
2022/04/06 03:10:08;;;;;;;18.70;8.80;;;9.40;99.90;;;;;;5129865;27;20035;-67
2022/04/06 03:12:34;;;;;;;21.17;8.57;;;9.20;99.90;;;;;;5147724;27;20434;-67
2022/04/06 03:15:00;;;;;;;26.60;9.00;;;9.20;99.90;;;;;;5129522;27;20031;-67
2022/04/06 03:17:26;;;;;;;17.67;8.30;;;9.40;99.90;;;;;;5112302;27;20043;-67
2022/04/06 03:19:51;;;;;;;19.58;8.57;;;9.30;99.90;;;;;;5148654;27;20112;-67
2022/04/06 03:22:20;;;;;;;25.90;9.43;;;9.30;99.90;;;;;;5129789;27;20043;-67
2022/04/06 03:24:47;;;;;;;33.25;10.98;;;9.30;99.90;;;;;;5129512;27;20047;-67
2022/04/06 03:27:13;;;;;;;25.17;9.18;;;9.40;99.90;;;;;;5130482;27;20163;-67
2022/04/06 03:29:40;;;;;;;28.85;9.57;;;9.40;99.90;;;;;;5130651;27;20444;-67
2022/04/06 03:32:09;;;;;;;26.33;9.73;;;9.30;99.90;;;;;;5129863;27;20491;-67
2022/04/06 03:34:36;;;;;;;30.63;11.35;;;9.20;99.90;;;;;;5140401;27;20042;-67
2022/04/06 03:37:01;;;;;;;28.75;10.20;;;9.30;99.90;;;;;;5168941;27;20144;-67
2022/04/06 03:39:27;;;;;;;28.27;10.18;;;9.50;99.90;;;;;;5149762;27;20043;-67
2022/04/06 03:41:53;;;;;;;24.33;9.00;;;9.40;99.90;;;;;;5165075;27;20102;-67
2022/04/06 03:44:19;;;;;;;25.35;11.05;;;9.40;99.90;;;;;;5169311;27;20046;-67
2022/04/06 03:46:44;;;;;;;27.08;11.02;;;9.40;99.90;;;;;;5149528;27;20034;-67
2022/04/06 03:49:10;;;;;;;25.40;10.23;;;9.20;99.90;;;;;;5150126;27;20039;-67
2022/04/06 03:51:36;;;;;;;31.05;11.95;;;9.20;99.90;;;;;;5168553;27;20047;-67
2022/04/06 03:54:03;;;;;;;29.50;11.60;;;9.40;99.90;;;;;;5169439;27;20031;-67
2022/04/06 03:56:29;;;;;;;27.33;11.55;;;9.50;99.90;;;;;;5150725;27;20409;-67
2022/04/06 03:58:55;;;;;;;24.88;11.13;;;9.40;99.90;;;;;;5149681;27;20063;-67
2022/04/06 04:01:21;;;;;;;32.58;12.25;;;9.20;99.90;;;;;;5170365;27;20053;-67
2022/04/06 04:03:46;;;;;;;32.28;11.48;;;9.20;99.90;;;;;;5167292;27;20035;-67
2022/04/06 04:06:12;;;;;;;27.95;12.98;;;9.30;99.90;;;;;;5168733;27;20111;-67
2022/04/06 04:08:38;;;;;;;34.75;13.65;;;9.30;99.90;;;;;;5150638;27;20046;-67
2022/04/06 04:11:03;;;;;;;31.20;12.38;;;9.50;99.90;;;;;;5149428;27;20107;-67
2022/04/06 04:13:29;;;;;;;33.88;13.73;;;9.50;99.90;;;;;;5148997;27;20103;-67
2022/04/06 04:15:55;;;;;;;34.95;12.65;;;9.50;99.90;;;;;;5162087;27;20042;-67
2022/04/06 04:18:21;;;;;;;33.13;13.20;;;9.50;99.90;;;;;;5144717;27;20088;-67
2022/04/06 04:20:46;;;;;;;31.08;13.50;;;9.50;99.90;;;;;;5146450;27;20043;-67
2022/04/06 04:23:12;;;;;;;36.20;13.52;;;9.50;99.90;;;;;;5168168;27;20049;-67
2022/04/06 04:25:38;;;;;;;31.77;13.65;;;9.70;99.90;;;;;;5150063;27;20050;-67
2022/04/06 04:28:05;;;;;;;27.30;14.35;;;9.50;99.90;;;;;;5135814;27;20043;-67
2022/04/06 04:30:31;;;;;;;34.75;13.98;;;9.60;99.90;;;;;;5149785;27;20749;-67
2022/04/06 04:32:57;;;;;;;32.00;12.70;;;9.40;99.90;;;;;;5167848;27;20074;-64
2022/04/06 04:35:23;;;;;;;25.20;11.48;;;9.50;99.90;;;;;;5171683;27;20055;-66
2022/04/06 04:37:49;;;;;;;31.45;11.85;;;9.60;99.90;;;;;;5167377;27;20042;-66
2022/04/06 04:40:20;;;;;;;28.52;12.90;;;9.50;99.90;;;;;;5147586;27;20100;-67
2022/04/06 04:42:46;;;;;;;30.90;12.18;;;9.60;99.90;;;;;;5164558;27;20043;-66
2022/04/06 04:45:12;;;;;;;24.95;10.57;;;9.60;99.90;;;;;;5122278;27;20046;-71
2022/04/06 04:47:39;;;;;;;28.95;12.43;;;9.50;99.90;;;;;;5138382;27;20030;-67
2022/04/06 04:50:06;;;;;;;31.15;11.45;;;9.40;99.90;;;;;;5129157;27;20495;-67
2022/04/06 04:52:32;;;;;;;27.48;12.05;;;9.40;99.90;;;;;;5148450;27;20046;-67
2022/04/06 04:54:57;;;;;;;26.23;10.23;;;9.30;99.90;;;;;;5130208;27;20095;-67
2022/04/06 04:57:23;;;;;;;22.67;9.70;;;9.40;99.90;;;;;;5134336;27;20034;-67
2022/04/06 04:59:52;;;;;;;24.27;9.32;;;9.30;99.90;;;;;;5125025;27;20039;-67
2022/04/06 05:02:18;;;;;;;22.30;10.15;;;9.40;99.90;;;;;;5134224;27;20287;-66
2022/04/06 05:04:44;;;;;;;21.52;8.60;;;9.40;99.90;;;;;;5126691;27;20057;-66
2022/04/06 05:07:10;;;;;;;22.63;9.20;;;9.50;99.90;;;;;;5140665;27;20125;-66
2022/04/06 05:09:36;;;;;;;22.55;9.80;;;9.30;99.90;;;;;;5133911;27;20145;-66
2022/04/06 05:12:01;;;;;;;23.30;9.85;;;9.40;99.90;;;;;;5161903;27;20031;-67
2022/04/06 05:14:27;;;;;;;21.17;8.70;;;9.30;99.90;;;;;;5132898;27;20051;-66
2022/04/06 05:16:53;;;;;;;23.65;9.57;;;9.40;99.90;;;;;;5141937;27;20081;-68
2022/04/06 05:19:19;;;;;;;21.73;8.40;;;9.10;99.90;;;;;;5128048;27;20051;-66
2022/04/06 05:21:44;;;;;;;15.68;7.85;;;9.30;99.90;;;;;;5135257;27;20100;-64
2022/04/06 05:24:10;;;;;;;21.15;7.88;;;9.20;99.90;;;;;;5125360;27;20322;-65
2022/04/06 05:26:36;;;;;;;20.73;8.18;;;9.10;99.90;;;;;;5137114;27;20047;-66
2022/04/06 05:29:02;;;;;;;20.42;9.23;;;9.20;99.90;;;;;;5119205;27;20042;-66
2022/04/06 05:31:29;;;;;;;21.30;9.18;;;9.20;99.90;;;;;;5138148;27;20451;-66
2022/04/06 05:33:54;;;;;;;22.52;9.35;;;9.30;99.90;;;;;;5125708;27;20082;-65
2022/04/06 05:36:20;;;;;;;23.83;9.18;;;9.00;99.90;;;;;;5118791;27;20051;-65
2022/04/06 05:38:46;;;;;;;19.67;8.32;;;9.20;99.90;;;;;;5091499;27;20682;-65
2022/04/06 05:41:11;;;;;;;22.13;8.50;;;9.00;99.90;;;;;;5137944;27;20039;-67
2022/04/06 05:43:37;;;;;;;21.80;7.93;;;8.90;99.90;;;;;;5091398;27;20052;-65
2022/04/06 05:46:03;;;;;;;17.30;8.25;;;9.00;99.90;;;;;;5127807;27;20070;-65
2022/04/06 05:48:28;;;;;;;21.58;8.10;;;9.20;99.90;;;;;;5106215;28;20055;-63
2022/04/06 05:50:54;;;;;;;22.80;8.35;;;9.20;99.90;;;;;;5137134;27;20043;-64
2022/04/06 05:53:20;;;;;;;16.08;7.85;;;9.00;99.90;;;;;;5127072;27;20118;-64
2022/04/06 05:55:47;;;;;;;21.92;7.30;;;9.10;99.90;;;;;;5119426;27;20054;-63
2022/04/06 05:58:14;;;;;;;19.70;7.70;;;9.10;99.90;;;;;;5127213;27;20066;-64
2022/04/06 06:00:40;;;;;;;21.42;8.13;;;9.20;99.90;;;;;;5135380;27;20051;-63
2022/04/06 06:03:06;;;;;;;17.20;8.15;;;9.20;99.90;;;;;;5107076;27;20031;-64
2022/04/06 06:05:31;;;;;;;19.35;7.72;;;9.20;99.90;;;;;;5108486;28;20139;-64
2022/04/06 06:07:57;;;;;;;18.75;6.95;;;9.10;99.90;;;;;;5125836;27;20042;-64
2022/04/06 06:10:23;;;;;;;17.60;6.60;;;9.00;99.90;;;;;;5138780;27;20134;-64
2022/04/06 06:12:49;;;;;;;17.45;7.00;;;9.30;99.90;;;;;;5119940;27;20523;-64
2022/04/06 06:15:15;;;;;;;19.20;6.40;;;9.30;99.90;;;;;;5106920;27;20047;-64
2022/04/06 06:17:41;;;;;;;13.95;6.55;;;9.20;99.90;;;;;;5118985;27;20049;-63
2022/04/06 06:20:08;;;;;;;18.13;6.97;;;9.10;99.90;;;;;;5108548;28;20051;-63
2022/04/06 06:22:33;;;;;;;17.85;6.70;;;9.10;99.90;;;;;;5136198;27;20035;-63
2022/04/06 06:25:00;;;;;;;11.90;5.65;;;9.00;99.90;;;;;;5124638;27;20580;-63
2022/04/06 06:27:25;;;;;;;14.98;5.35;;;9.10;99.90;;;;;;5120906;28;20208;-63
2022/04/06 06:29:51;;;;;;;11.68;5.63;;;9.20;99.90;;;;;;5110123;28;20708;-64
2022/04/06 06:32:17;;;;;;;14.27;4.70;;;9.20;99.90;;;;;;5118089;28;20047;-63
2022/04/06 06:34:43;;;;;;;12.50;4.88;;;9.10;99.90;;;;;;5137229;27;20077;-63
2022/04/06 06:37:10;;;;;;;12.13;5.50;;;9.00;99.90;;;;;;5154905;27;20104;-63
2022/04/06 06:39:37;;;;;;;10.05;4.32;;;9.10;99.90;;;;;;5152217;27;20134;-64
2022/04/06 06:42:04;;;;;;;19.10;4.90;;;8.90;99.90;;;;;;5132783;27;20118;-70
2022/04/06 06:44:30;;;;;;;13.02;4.45;;;9.10;99.90;;;;;;5119887;27;20088;-76
2022/04/06 06:46:55;;;;;;;11.25;4.10;;;9.00;99.90;;;;;;5140766;27;20031;-71
2022/04/06 06:49:21;;;;;;;14.27;4.03;;;9.00;99.90;;;;;;5131809;27;20247;-78
2022/04/06 06:51:47;;;;;;;12.30;4.13;;;9.10;99.90;;;;;;5135708;27;20045;-74
2022/04/06 06:54:12;;;;;;;12.05;3.90;;;9.00;99.90;;;;;;5130902;27;20054;-77
2022/04/06 06:56:38;;;;;;;9.93;3.40;;;9.10;99.90;;;;;;5153177;27;20054;-74
2022/04/06 06:59:04;;;;;;;10.25;3.35;;;9.10;99.90;;;;;;5114564;27;20526;-74
2022/04/06 07:01:29;;;;;;;8.30;3.53;;;9.10;99.90;;;;;;5140128;27;20057;-73
2022/04/06 07:03:55;;;;;;;15.40;4.00;;;9.10;99.90;;;;;;5125954;27;20050;-74
2022/04/06 07:06:21;;;;;;;15.40;3.83;;;9.20;99.90;;;;;;5118479;27;20039;-74
2022/04/06 07:08:46;;;;;;;14.10;3.80;;;9.10;99.90;;;;;;5112606;27;20145;-74
2022/04/06 07:11:12;;;;;;;9.98;3.63;;;9.20;99.90;;;;;;5138053;27;20047;-74
2022/04/06 07:13:38;;;;;;;17.98;4.03;;;9.20;99.90;;;;;;5131677;27;20161;-74
2022/04/06 07:16:07;;;;;;;12.38;3.80;;;9.00;99.90;;;;;;5138484;27;20039;-76
2022/04/06 07:18:33;;;;;;;12.57;4.68;;;9.20;99.90;;;;;;5121519;27;20055;-74
2022/04/06 07:21:00;;;;;;;13.43;4.85;;;8.90;99.90;;;;;;5138388;27;20043;-75
2022/04/06 07:23:26;;;;;;;13.35;4.22;;;9.20;99.90;;;;;;5127126;27;20042;-74
2022/04/06 07:25:51;;;;;;;12.48;3.70;;;9.10;99.90;;;;;;5120396;27;20042;-71
2022/04/06 07:28:17;;;;;;;13.25;4.00;;;9.20;99.90;;;;;;5130363;27;20054;-67
2022/04/06 07:30:43;;;;;;;14.02;4.60;;;9.30;99.90;;;;;;5154877;27;20090;-73
2022/04/06 07:33:09;;;;;;;12.35;3.95;;;9.30;99.90;;;;;;5130147;27;20081;-74
2022/04/06 07:35:37;;;;;;;13.15;4.03;;;9.30;99.90;;;;;;5110798;27;20098;-73
2022/04/06 07:38:03;;;;;;;9.50;3.95;;;9.00;99.90;;;;;;5139491;27;20061;-74
2022/04/06 07:40:28;;;;;;;11.15;3.80;;;9.00;99.90;;;;;;5133425;27;20058;-74
2022/04/06 07:42:54;;;;;;;10.63;3.63;;;9.10;99.90;;;;;;5131991;27;20046;-74
2022/04/06 07:45:21;;;;;;;14.30;4.10;;;9.10;99.90;;;;;;5094691;27;20051;-74
2022/04/06 07:47:52;;;;;;;13.40;4.57;;;9.00;99.90;;;;;;5156021;27;20096;-74
2022/04/06 07:50:19;;;;;;;13.05;4.20;;;9.20;99.90;;;;;;5131274;27;20046;-75
2022/04/06 07:52:46;;;;;;;15.80;4.93;;;9.10;99.90;;;;;;5124124;27;20066;-74
2022/04/06 07:55:13;;;;;;;12.38;5.40;;;9.00;99.90;;;;;;5127235;27;20061;-74
2022/04/06 07:57:39;;;;;;;13.13;5.25;;;9.10;99.90;;;;;;5160407;27;20039;-74
2022/04/06 08:00:10;;;;;;;19.23;5.20;;;8.90;99.90;;;;;;5137289;27;20043;-74
2022/04/06 08:02:37;;;;;;;17.95;5.88;;;9.00;99.90;;;;;;5141774;27;20066;-74
2022/04/06 08:05:04;;;;;;;14.60;5.53;;;9.10;99.90;;;;;;5137998;27;20366;-74
2022/04/06 08:07:31;;;;;;;16.67;6.70;;;9.30;99.90;;;;;;5141616;27;20038;-74
2022/04/06 08:09:56;;;;;;;10.95;5.88;;;9.40;99.90;;;;;;5116223;27;20141;-74
2022/04/06 08:12:22;;;;;;;16.77;5.57;;;9.40;99.90;;;;;;5141492;27;20561;-74
2022/04/06 08:14:50;;;;;;;15.38;6.38;;;9.30;99.90;;;;;;5149911;27;20046;-74
2022/04/06 08:17:16;;;;;;;16.17;6.40;;;9.20;99.90;;;;;;5140203;27;20046;-73
2022/04/06 08:19:42;;;;;;;22.73;7.10;;;9.50;99.90;;;;;;5134697;27;20045;-74
2022/04/06 08:22:07;;;;;;;15.93;6.70;;;9.60;99.90;;;;;;5138186;27;20046;-74
2022/04/06 08:24:33;;;;;;;14.32;6.53;;;9.40;99.90;;;;;;5132063;27;20047;-74
2022/04/06 08:26:59;;;;;;;16.40;6.93;;;9.40;99.90;;;;;;5140341;27;20045;-73
2022/04/06 08:29:26;;;;;;;17.85;6.60;;;9.50;99.90;;;;;;5132398;27;20560;-73
2022/04/06 08:31:52;;;;;;;15.68;7.32;;;9.40;99.90;;;;;;5146299;27;20474;-73
2022/04/06 08:34:18;;;;;;;17.95;7.93;;;9.50;99.90;;;;;;5126404;27;20062;-73
2022/04/06 08:36:45;;;;;;;17.88;7.30;;;9.60;99.90;;;;;;5141461;27;20038;-74
2022/04/06 08:39:11;;;;;;;15.25;7.05;;;9.40;99.90;;;;;;5111071;27;20092;-74
2022/04/06 08:41:36;;;;;;;19.77;8.88;;;9.60;99.90;;;;;;5136809;27;20043;-74
2022/04/06 08:44:02;;;;;;;14.70;7.22;;;9.40;99.90;;;;;;5119477;27;20273;-75
2022/04/06 08:46:34;;;;;;;14.55;7.13;;;9.30;99.90;;;;;;5158253;27;20135;-75
2022/04/06 08:49:01;;;;;;;12.57;7.40;;;9.50;99.90;;;;;;5132144;27;20042;-74
2022/04/06 08:51:28;;;;;;;20.38;8.88;;;9.50;99.90;;;;;;5156768;27;20086;-74
2022/04/06 08:53:54;;;;;;;13.43;7.65;;;9.20;99.90;;;;;;5130139;27;20047;-76
2022/04/06 08:56:21;;;;;;;20.48;8.98;;;9.30;99.90;;;;;;5158844;27;20151;-75
2022/04/06 08:58:47;;;;;;;17.00;9.13;;;9.40;99.90;;;;;;5129007;27;20050;-74
2022/04/06 09:01:13;;;;;;;15.93;7.47;;;9.20;99.90;;;;;;5142686;27;20071;-74
2022/04/06 09:03:40;;;;;;;16.40;7.28;;;9.40;99.90;;;;;;5129657;27;20034;-71
2022/04/06 09:06:11;;;;;;;14.27;7.00;;;9.30;99.90;;;;;;5136625;27;20050;-74
2022/04/06 09:08:43;;;;;;;16.50;6.05;;;9.20;99.90;;;;;;5139639;27;20035;-74
2022/04/06 09:11:10;;;;;;;18.13;7.03;;;9.30;99.90;;;;;;5140183;27;20054;-75
2022/04/06 09:13:36;;;;;;;13.35;6.93;;;9.40;99.90;;;;;;5141720;27;20268;-75
2022/04/06 09:16:04;;;;;;;15.80;7.20;;;9.20;99.90;;;;;;5126144;27;20047;-75
2022/04/06 09:18:41;;;;;;;15.30;5.68;;;9.30;99.90;;;;;;5120605;27;20038;-73
2022/04/06 09:21:09;;;;;;;14.95;4.97;;;9.20;99.90;;;;;;5110315;27;20054;-74
2022/04/06 09:23:35;;;;;;;16.70;5.40;;;9.30;99.90;;;;;;5121737;27;20034;-73
2022/04/06 09:26:13;;;;;;;13.57;5.28;;;9.50;99.90;;;;;;5111996;27;20114;-74
2022/04/06 09:28:49;;;;;;;12.68;4.95;;;9.60;99.90;;;;;;5138843;27;20047;-74
2022/04/06 09:31:17;;;;;;;16.15;5.50;;;9.70;99.90;;;;;;5111690;27;20293;-74
2022/04/06 09:33:55;;;;;;;13.60;4.70;;;9.90;99.90;;;;;;5135133;27;20043;-73
2022/04/06 09:36:21;;;;;;;14.10;5.20;;;10.00;99.90;;;;;;5108948;27;20099;-73
2022/04/06 09:38:48;;;;;;;9.90;4.55;;;10.00;99.90;;;;;;5090402;27;20042;-73
2022/04/06 09:41:15;;;;;;;9.90;4.57;;;10.10;99.90;;;;;;5104321;27;20054;-74
2022/04/06 09:43:44;;;;;;;10.43;4.45;;;10.00;99.90;;;;;;5106691;27;20043;-74
2022/04/06 09:49:19;;;;;;;8.88;4.60;;;9.80;99.90;;;;;;5104449;27;20071;-74
2022/04/06 09:51:51;;;;;;;12.68;5.03;;;10.00;99.90;;;;;;5121833;27;20043;-74
2022/04/06 09:54:18;;;;;;;13.13;5.47;;;9.90;99.90;;;;;;5130328;27;20088;-73
2022/04/06 09:56:45;;;;;;;19.42;5.60;;;10.00;99.90;;;;;;5121530;27;20035;-73
2022/04/06 09:59:13;;;;;;;9.27;4.78;;;10.10;99.90;;;;;;5122618;27;20055;-72
2022/04/06 10:01:46;;;;;;;12.65;5.22;;;10.00;99.90;;;;;;5134229;27;20066;-73
2022/04/06 10:04:13;;;;;;;13.75;6.00;;;10.20;99.90;;;;;;5107763;27;20040;-73
2022/04/06 10:06:41;;;;;;;6.53;5.10;;;10.20;99.90;;;;;;5118558;27;20039;-73
2022/04/06 10:09:09;;;;;;;13.80;5.93;;;10.20;99.90;;;;;;5126417;27;20061;-73
2022/04/06 10:11:38;;;;;;;12.00;6.57;;;10.20;99.90;;;;;;5117995;27;20039;-73
2022/04/06 10:14:05;;;;;;;13.48;5.75;;;10.20;99.90;;;;;;5108835;27;20580;-74
2022/04/06 10:16:32;;;;;;;8.93;5.63;;;10.20;99.90;;;;;;5132746;27;20047;-74
2022/04/06 10:18:59;;;;;;;13.43;6.40;;;10.40;99.90;;;;;;5106621;27;20081;-73
2022/04/06 10:21:45;;;;;;;12.88;6.15;;;10.40;99.90;;;;;;5121140;27;20515;-73
2022/04/06 10:24:31;;;;;;;13.32;6.07;;;10.40;99.90;;;;;;5107177;27;20103;-74
2022/04/06 10:27:19;;;;;;;13.25;6.28;;;10.30;99.90;;;;;;5120669;27;20114;-74
2022/04/06 10:30:06;;;;;;;12.23;6.07;;;10.30;99.90;;;;;;5107895;27;20120;-74
2022/04/06 10:32:43;;;;;;;11.10;6.50;;;10.20;99.90;;;;;;5115381;28;20039;-74
2022/04/06 10:35:26;;;;;;;12.50;6.10;;;10.30;99.90;;;;;;5086432;28;20048;-72
2022/04/06 10:38:00;;;;;;;13.48;7.47;;;10.40;99.90;;;;;;5113944;28;20054;-72
2022/04/06 10:40:31;;;;;;;11.65;8.02;;;10.40;99.90;;;;;;5083427;28;20067;-72
2022/04/06 10:42:57;;;;;;;14.07;6.75;;;10.30;99.90;;;;;;5113423;28;20430;-72
2022/04/06 10:45:28;;;;;;;13.90;7.78;;;10.40;99.90;;;;;;5076799;28;20054;-71
2022/04/06 10:48:16;;;;;;;14.90;7.07;;;10.30;99.90;;;;;;5129015;28;20589;-71
2022/04/06 10:50:47;;;;;;;14.80;7.18;;;10.30;99.90;;;;;;5108690;28;20051;-72
2022/04/06 10:53:19;;;;;;;17.25;6.97;;;10.30;99.90;;;;;;5119166;28;20611;-73
2022/04/06 10:56:17;;;;;;;11.27;7.07;;;10.20;99.90;;;;;;5100597;28;20040;-72
2022/04/06 10:58:58;;;;;;;19.10;8.48;;;10.40;99.90;;;;;;5116592;28;20043;-73
2022/04/06 11:01:32;;;;;;;19.02;8.57;;;10.20;99.90;;;;;;5096069;28;20146;-75
2022/04/06 11:04:04;;;;;;;20.83;8.32;;;10.10;99.90;;;;;;5116277;28;20046;-77
2022/04/06 11:06:48;;;;;;;19.90;8.95;;;10.20;99.90;;;;;;5088943;28;20055;-75
2022/04/06 11:12:20;;;;;;;16.52;8.15;;;10.00;99.90;;;;;;5120509;27;20059;-73
2022/04/06 11:15:08;;;;;;;15.82;8.38;;;10.00;99.90;;;;;;5094581;27;20052;-74
2022/04/06 11:17:39;;;;;;;17.90;8.13;;;10.10;99.90;;;;;;5095083;27;20107;-74
2022/04/06 11:20:08;;;;;;;16.17;9.07;;;10.20;99.90;;;;;;5111448;27;20134;-73
2022/04/06 11:22:38;;;;;;;14.68;9.57;;;10.10;99.90;;;;;;5121574;27;20121;-76
2022/04/06 11:25:14;;;;;;;12.60;8.35;;;10.30;99.90;;;;;;5111478;27;20146;-76
2022/04/06 11:27:42;;;;;;;13.45;8.98;;;10.10;99.90;;;;;;5115573;27;20055;-77
2022/04/06 11:30:13;;;;;;;14.32;9.57;;;10.20;99.90;;;;;;5111453;27;20267;-76
2022/04/06 11:32:59;;;;;;;15.13;10.32;;;10.10;99.90;;;;;;5122422;27;20054;-76
2022/04/06 11:35:36;;;;;;;17.85;9.73;;;10.00;99.90;;;;;;5100631;27;20047;-76
2022/04/06 11:38:06;;;;;;;20.83;12.05;;;10.20;99.90;;;;;;5118251;27;20443;-75
2022/04/06 11:40:33;;;;;;;14.68;11.30;;;10.00;99.90;;;;;;5132035;27;20126;-78
2022/04/06 11:43:04;;;;;;;17.70;9.90;;;10.10;99.90;;;;;;5138152;27;20071;-77
2022/04/06 11:45:41;;;;;;;19.23;9.18;;;10.00;99.90;;;;;;5120410;27;20451;-78
2022/04/06 11:48:11;;;;;;;14.75;10.13;;;10.30;99.90;;;;;;5153953;27;20047;-77
2022/04/06 11:50:38;;;;;;;;;;;10.30;99.90;;;;;;5132270;27;20150;-77
2022/04/06 11:53:15;;;;;;;16.02;9.95;;;10.40;99.90;;;;;;5118953;27;19978;-78
2022/04/06 11:55:50;;;;;;;15.90;10.05;;;10.40;99.90;;;;;;5121774;27;20043;-77
2022/04/06 11:58:29;;;;;;;17.20;10.77;;;10.20;99.90;;;;;;5137966;27;20051;-77
2022/04/06 12:01:28;;;;;;;19.08;10.27;;;10.20;99.90;;;;;;5130852;27;20062;-76
2022/04/06 12:03:58;;;;;;;16.58;9.90;;;10.50;99.90;;;;;;5134636;27;20054;-76
2022/04/06 12:06:33;;;;;;;17.50;10.60;;;10.40;99.90;;;;;;5129976;27;20053;-77
2022/04/06 12:08:59;;;;;;;15.98;9.60;;;10.20;99.90;;;;;;5138299;27;20039;-78
2022/04/06 12:11:26;;;;;;;17.17;10.43;;;10.40;99.90;;;;;;5110817;27;20122;-75
2022/04/06 12:13:52;;;;;;;16.58;10.43;;;10.30;99.90;;;;;;5137544;27;20047;-75
2022/04/06 12:16:22;;;;;;;15.88;9.70;;;10.30;99.90;;;;;;5128911;27;20046;-75
2022/04/06 12:18:51;;;;;;;19.60;10.65;;;10.60;99.90;;;;;;5138496;27;20486;-75
2022/04/06 12:21:25;;;;;;;15.02;9.90;;;10.60;99.90;;;;;;5132938;27;20143;-75
2022/04/06 12:23:52;;;;;;;15.63;10.27;;;10.70;99.90;;;;;;5137381;27;20055;-75
2022/04/06 12:26:18;;;;;;;18.00;11.00;;;10.50;99.90;;;;;;5130236;27;20150;-76
2022/04/06 12:28:48;;;;;;;18.90;9.10;;;10.80;99.90;;;;;;5155628;27;20043;-75
2022/04/06 12:31:14;;;;;;;13.73;8.27;;;10.80;99.90;;;;;;5128490;27;20578;-76
2022/04/06 12:33:48;;;;;;;14.35;9.75;;;11.00;99.90;;;;;;5123583;27;20068;-77
2022/04/06 12:36:20;;;;;;;15.05;8.95;;;10.90;99.90;;;;;;5135875;27;20293;-77
2022/04/06 12:39:01;;;;;;;12.25;8.77;;;10.90;99.90;;;;;;5142823;27;20036;-75
2022/04/06 12:41:34;;;;;;;16.85;9.52;;;10.80;99.90;;;;;;5129828;27;20047;-75
2022/04/06 12:44:04;;;;;;;16.42;9.18;;;10.90;99.90;;;;;;5148449;27;20055;-77
2022/04/06 12:46:37;;;;;;;15.52;9.57;;;11.00;99.90;;;;;;5143708;27;20050;-76
2022/04/06 12:49:25;;;;;;;17.13;9.45;;;10.80;99.90;;;;;;5132653;27;20077;-75
2022/04/06 12:52:22;;;;;;;15.32;8.90;;;10.90;99.90;;;;;;5117316;27;20051;-74
2022/04/06 12:54:52;;;;;;;17.33;10.15;;;11.00;99.90;;;;;;5130951;27;20047;-77
2022/04/06 12:57:39;;;;;;;15.25;9.45;;;10.90;99.90;;;;;;5134286;27;20121;-76